createdAt,value
2022-10-11T00:01:05.251Z,14.80
2022-10-11T00:03:37.186Z,14.80
2022-10-11T00:06:06.951Z,14.80
2022-10-11T00:08:35.739Z,14.80
2022-10-11T00:11:08.678Z,14.70
2022-10-11T00:13:37.485Z,14.70
2022-10-11T00:16:11.350Z,14.70
2022-10-11T00:18:39.776Z,14.70
2022-10-11T00:21:11.690Z,14.70
2022-10-11T00:23:40.981Z,14.60
2022-10-11T00:26:12.147Z,14.60
2022-10-11T00:28:41.918Z,14.60
2022-10-11T00:31:14.789Z,14.60
2022-10-11T00:33:43.473Z,14.60
2022-10-11T00:36:16.647Z,14.60
2022-10-11T00:38:45.320Z,14.60
2022-10-11T00:41:15.313Z,14.60
2022-10-11T00:43:44.719Z,14.60
2022-10-11T00:46:38.837Z,14.50
2022-10-11T00:49:15.918Z,14.50
2022-10-11T00:51:51.988Z,14.50
2022-10-11T00:54:25.345Z,14.60
2022-10-11T00:56:59.381Z,14.50
2022-10-11T00:59:35.882Z,14.50
2022-10-11T01:02:06.386Z,14.50
2022-10-11T01:07:04.099Z,14.50
2022-10-11T01:09:32.560Z,14.50
2022-10-11T01:12:05.176Z,14.50
2022-10-11T01:15:00.988Z,14.40
2022-10-11T01:17:43.502Z,14.40
2022-10-11T01:20:43.112Z,14.30
2022-10-11T01:23:56.677Z,14.30
2022-10-11T01:27:00.671Z,14.30
2022-10-11T01:29:47.288Z,14.20
2022-10-11T01:32:22.271Z,14.20
2022-10-11T01:34:59.364Z,14.20
2022-10-11T01:37:33.678Z,14.10
2022-10-11T01:40:08.640Z,14.10
2022-10-11T01:42:39.802Z,14.10
2022-10-11T01:45:13.798Z,14.00
2022-10-11T01:47:45.648Z,14.00
2022-10-11T01:50:36.925Z,14.00
2022-10-11T01:53:50.397Z,14.00
2022-10-11T01:56:41.939Z,14.00
2022-10-11T01:59:29.216Z,13.90
2022-10-11T02:02:11.806Z,13.90
2022-10-11T02:04:48.909Z,13.90
2022-10-11T02:07:24.191Z,13.90
2022-10-11T02:10:01.610Z,13.90
2022-10-11T02:12:37.577Z,13.80
2022-10-11T02:15:10.287Z,13.80
2022-10-11T02:17:43.838Z,13.80
2022-10-11T02:20:19.065Z,13.80
2022-10-11T02:22:50.928Z,13.80
2022-10-11T02:25:24.014Z,13.80
2022-10-11T02:27:55.862Z,13.70
2022-10-11T02:30:24.726Z,13.70
2022-10-11T02:32:55.371Z,13.70
2022-10-11T02:35:28.020Z,13.60
2022-10-11T02:38:06.643Z,13.70
2022-10-11T02:40:40.118Z,13.60
2022-10-11T02:43:17.732Z,13.60
2022-10-11T02:45:51.867Z,13.60
2022-10-11T02:48:20.763Z,13.60
2022-10-11T02:50:50.621Z,13.60
2022-10-11T02:53:19.192Z,13.60
2022-10-11T02:55:49.202Z,13.60
2022-10-11T02:58:17.451Z,13.60
2022-10-11T03:00:46.104Z,13.60
2022-10-11T03:05:43.917Z,13.60
2022-10-11T03:08:17.293Z,13.60
2022-10-11T03:10:45.830Z,13.50
2022-10-11T03:13:18.097Z,13.50
2022-10-11T03:16:01.957Z,13.40
2022-10-11T03:20:59.971Z,13.30
2022-10-11T03:23:29.772Z,13.30
2022-10-11T03:25:58.029Z,13.30
2022-10-11T03:28:26.475Z,13.30
2022-10-11T03:30:54.996Z,13.20
2022-10-11T03:33:23.229Z,13.10
2022-10-11T03:35:51.496Z,13.10
2022-10-11T03:38:23.002Z,13.10
2022-10-11T03:40:53.075Z,13.10
2022-10-11T03:43:21.354Z,13.00
2022-10-11T03:48:18.148Z,12.90
2022-10-11T03:50:47.660Z,12.80
2022-10-11T03:53:16.221Z,12.80
2022-10-11T03:55:44.798Z,12.80
2022-10-11T03:58:14.346Z,12.70
2022-10-11T04:00:42.546Z,12.70
2022-10-11T04:03:10.745Z,12.60
2022-10-11T04:05:38.963Z,12.60
2022-10-11T04:08:11.809Z,12.50
2022-10-11T04:10:40.988Z,12.50
2022-10-11T04:13:10.446Z,12.40
2022-10-11T04:15:41.233Z,12.30
2022-10-11T04:18:10.695Z,12.30
2022-10-11T04:23:07.521Z,12.20
2022-10-11T04:25:35.811Z,12.30
2022-10-11T04:28:12.597Z,12.20
2022-10-11T04:30:44.186Z,12.10
2022-10-11T04:33:14.765Z,12.10
2022-10-11T04:38:11.553Z,12.00
2022-10-11T04:40:39.768Z,12.00
2022-10-11T04:43:07.996Z,11.90
2022-10-11T04:45:36.202Z,11.90
2022-10-11T04:48:06.488Z,11.80
2022-10-11T04:50:34.784Z,11.70
2022-10-11T05:00:30.316Z,11.50
2022-10-11T05:05:28.556Z,11.40
2022-10-11T05:10:25.335Z,11.30
2022-10-11T05:12:53.555Z,11.30
2022-10-11T05:15:21.892Z,11.30
2022-10-11T05:17:50.311Z,11.20
2022-10-11T05:20:18.676Z,11.20
2022-10-11T05:22:48.238Z,11.20
2022-10-11T05:25:16.655Z,11.10
2022-10-11T05:27:45.400Z,11.10
2022-10-11T05:30:14.132Z,11.00
2022-10-11T05:35:11.053Z,11.00
2022-10-11T05:37:39.261Z,10.90
2022-10-11T05:40:11.102Z,10.90
2022-10-11T05:42:39.415Z,10.80
2022-10-11T05:45:08.903Z,10.80
2022-10-11T05:47:37.188Z,10.80
2022-10-11T05:50:05.952Z,10.80
2022-10-11T05:57:33.303Z,10.70
2022-10-11T06:02:30.243Z,10.70
2022-10-11T06:04:58.442Z,10.70
2022-10-11T06:07:26.720Z,10.70
2022-10-11T06:09:55.103Z,10.70
2022-10-11T06:12:23.302Z,10.70
2022-10-11T06:14:52.828Z,10.70
2022-10-11T06:17:21.185Z,10.80
2022-10-11T06:22:18.275Z,10.80
2022-10-11T06:24:46.688Z,10.80
2022-10-11T06:27:14.966Z,10.80
2022-10-11T06:32:13.574Z,10.80
2022-10-11T06:34:41.811Z,10.80
2022-10-11T06:37:10.079Z,10.80
2022-10-11T06:39:38.396Z,10.80
2022-10-11T06:44:36.072Z,10.90
2022-10-11T06:49:35.245Z,10.90
2022-10-11T06:52:03.527Z,10.90
2022-10-11T06:54:31.739Z,10.90
2022-10-11T06:57:00.265Z,10.90
2022-10-11T06:59:28.456Z,11.00
2022-10-11T07:01:56.643Z,11.10
2022-10-11T07:04:24.882Z,11.20
2022-10-11T07:06:54.538Z,11.30
2022-10-11T07:16:48.431Z,12.10
2022-10-11T07:19:16.629Z,12.40
2022-10-11T07:21:44.841Z,12.60
2022-10-11T07:24:14.443Z,12.90
2022-10-11T07:29:12.447Z,13.30
2022-10-11T07:31:43.349Z,13.40
2022-10-11T07:34:12.301Z,13.50
2022-10-11T07:36:40.894Z,13.50
2022-10-11T07:39:09.791Z,13.50
2022-10-11T07:41:45.364Z,13.30
2022-10-11T07:44:14.968Z,13.10
2022-10-11T07:46:43.253Z,12.90
2022-10-11T07:51:40.116Z,12.70
2022-10-11T07:54:08.390Z,12.60
2022-10-11T07:56:39.878Z,12.60
2022-10-11T07:59:11.496Z,12.60
2022-10-11T08:01:39.841Z,12.50
2022-10-11T08:04:08.052Z,12.50
2022-10-11T08:06:37.290Z,12.50
2022-10-11T08:09:06.603Z,12.50
2022-10-11T08:11:37.431Z,12.60
2022-10-11T08:14:11.214Z,12.60
2022-10-11T08:16:40.858Z,12.60
2022-10-11T08:21:37.978Z,12.50
2022-10-11T08:24:07.456Z,12.50
2022-10-11T08:26:36.571Z,12.50
2022-10-11T08:31:36.231Z,12.50
2022-10-11T08:34:04.550Z,12.60
2022-10-11T08:36:33.489Z,12.60
2022-10-11T08:39:02.411Z,12.60
2022-10-11T08:41:40.306Z,12.70
2022-10-11T08:44:52.155Z,12.70
2022-10-11T08:47:29.652Z,12.70
2022-10-11T08:49:59.301Z,12.70
2022-10-11T08:52:43.693Z,12.80
2022-10-11T08:55:22.614Z,13.00
2022-10-11T08:57:55.763Z,13.40
2022-10-11T09:00:25.403Z,13.70
2022-10-11T09:03:09.290Z,14.00
2022-10-11T09:05:48.994Z,14.10
2022-10-11T09:08:29.172Z,14.10
2022-10-11T09:11:05.881Z,14.20
2022-10-11T09:14:07.985Z,14.60
2022-10-11T09:16:54.325Z,15.10
2022-10-11T09:19:50.462Z,15.20
2022-10-11T09:22:30.761Z,15.40
2022-10-11T09:25:16.632Z,15.60
2022-10-11T09:28:04.261Z,15.70
2022-10-11T09:30:33.321Z,15.70
2022-10-11T09:33:14.434Z,15.70
2022-10-11T09:35:48.966Z,15.60
2022-10-11T09:38:31.832Z,15.50
2022-10-11T09:41:14.324Z,15.50
2022-10-11T09:43:45.899Z,15.50
2022-10-11T09:46:30.741Z,15.50
2022-10-11T09:48:59.846Z,15.70
2022-10-11T09:51:30.709Z,16.10
2022-10-11T09:54:01.284Z,16.60
2022-10-11T09:56:32.926Z,17.00
2022-10-11T09:59:11.398Z,17.30
2022-10-11T10:01:40.017Z,17.30
2022-10-11T10:04:12.467Z,17.10
2022-10-11T10:06:42.423Z,17.00
2022-10-11T10:09:27.200Z,16.90
2022-10-11T10:11:57.036Z,16.90
2022-10-11T10:14:30.106Z,17.30
2022-10-11T10:17:05.546Z,17.90
2022-10-11T10:19:45.205Z,18.40
2022-10-11T10:22:22.487Z,18.60
2022-10-11T10:24:52.903Z,18.70
2022-10-11T10:27:24.858Z,19.10
2022-10-11T10:30:19.973Z,19.40
2022-10-11T10:32:55.919Z,19.50
2022-10-11T10:35:34.379Z,20.10
2022-10-11T10:38:16.637Z,20.50
2022-10-11T10:40:50.522Z,21.00
2022-10-11T10:43:21.497Z,20.90
2022-10-11T10:46:19.464Z,20.60
2022-10-11T10:52:05.829Z,20.00
2022-10-11T10:54:46.184Z,19.90
2022-10-11T10:57:24.369Z,19.90
2022-10-11T11:00:14.017Z,19.80
2022-10-11T11:02:51.953Z,19.70
2022-10-11T11:05:33.853Z,19.60
2022-10-11T11:08:14.367Z,19.40
2022-10-11T11:10:54.201Z,19.40
2022-10-11T11:13:34.853Z,19.40
2022-10-11T11:16:15.512Z,19.40
2022-10-11T11:18:54.540Z,19.50
2022-10-11T11:21:41.660Z,20.00
2022-10-11T11:24:22.781Z,20.50
2022-10-11T11:26:59.500Z,21.10
2022-10-11T11:29:49.805Z,21.50
2022-10-11T11:32:31.999Z,21.80
2022-10-11T11:35:04.053Z,22.00
2022-10-11T11:37:36.889Z,22.30
2022-10-11T11:40:17.871Z,22.60
2022-10-11T11:42:56.712Z,23.00
2022-10-11T11:45:30.327Z,23.20
2022-10-11T11:48:05.189Z,23.40
2022-10-11T11:50:40.070Z,23.50
2022-10-11T11:53:15.551Z,23.60
2022-10-11T11:55:51.771Z,23.70
2022-10-11T11:58:36.344Z,24.00
2022-10-11T12:01:19.180Z,24.20
2022-10-11T12:03:51.956Z,24.40
2022-10-11T12:06:25.376Z,24.50
2022-10-11T12:09:05.888Z,24.60
2022-10-11T12:11:44.499Z,24.80
2022-10-11T12:14:34.727Z,24.80
2022-10-11T12:17:20.273Z,24.70
2022-10-11T12:20:17.398Z,24.60
2022-10-11T12:23:00.121Z,24.50
2022-10-11T12:25:38.299Z,24.60
2022-10-11T12:28:51.297Z,24.60
2022-10-11T12:31:25.566Z,24.60
2022-10-11T12:34:28.375Z,24.80
2022-10-11T12:36:56.699Z,25.00
2022-10-11T12:39:53.016Z,25.10
2022-10-11T12:42:31.735Z,25.00
2022-10-11T12:45:34.874Z,25.00
2022-10-11T12:48:45.375Z,25.00
2022-10-11T12:51:37.709Z,24.80
2022-10-11T12:54:43.910Z,24.80
2022-10-11T12:57:46.356Z,24.70
2022-10-11T13:00:26.330Z,24.70
2022-10-11T13:02:55.069Z,24.80
2022-10-11T13:05:28.107Z,24.80
2022-10-11T13:08:03.513Z,24.80
2022-10-11T13:10:40.637Z,24.80
2022-10-11T13:13:20.082Z,24.70
2022-10-11T13:15:48.598Z,24.80
2022-10-11T13:18:18.863Z,24.90
2022-10-11T13:20:48.544Z,24.90
2022-10-11T13:23:25.252Z,25.10
2022-10-11T13:25:53.852Z,25.10
2022-10-11T13:28:24.343Z,25.10
2022-10-11T13:30:56.306Z,25.00
2022-10-11T13:33:32.189Z,25.00
2022-10-11T13:36:03.879Z,24.90
2022-10-11T13:38:35.436Z,24.80
2022-10-11T13:41:08.193Z,24.70
2022-10-11T13:43:37.273Z,24.60
2022-10-11T13:46:06.570Z,24.30
2022-10-11T13:48:41.590Z,23.90
2022-10-11T13:51:18.710Z,23.50
2022-10-11T13:53:59.877Z,23.20
2022-10-11T13:56:30.757Z,22.90
2022-10-11T13:58:59.919Z,22.80
2022-10-11T14:01:36.126Z,22.70
2022-10-11T14:04:07.412Z,22.60
2022-10-11T14:06:48.721Z,22.60
2022-10-11T14:09:23.233Z,22.60
2022-10-11T14:14:41.007Z,22.70
2022-10-11T14:17:16.892Z,22.60
2022-10-11T14:19:47.341Z,22.50
2022-10-11T14:22:19.039Z,22.40
2022-10-11T14:24:49.510Z,22.10
2022-10-11T14:27:23.487Z,21.90
2022-10-11T14:30:12.899Z,21.60
2022-10-11T14:32:42.224Z,21.50
2022-10-11T14:35:18.375Z,21.40
2022-10-11T14:37:48.653Z,21.40
2022-10-11T14:40:19.628Z,21.40
2022-10-11T14:42:48.076Z,21.30
2022-10-11T14:45:16.893Z,21.10
2022-10-11T14:47:45.656Z,21.00
2022-10-11T14:50:37.761Z,20.90
2022-10-11T14:53:09.020Z,20.70
2022-10-11T14:55:38.348Z,20.60
2022-10-11T14:58:06.834Z,20.40
2022-10-11T15:00:37.279Z,20.30
2022-10-11T15:05:36.338Z,20.00
2022-10-11T15:08:05.545Z,19.80
2022-10-11T15:10:38.737Z,19.70
2022-10-11T15:13:08.015Z,19.50
2022-10-11T15:15:41.199Z,19.40
2022-10-11T15:18:16.557Z,19.20
2022-10-11T15:20:47.725Z,19.00
2022-10-11T15:25:46.987Z,18.60
2022-10-11T15:28:28.366Z,18.40
2022-10-11T15:33:26.789Z,18.20
2022-10-11T15:38:26.361Z,18.00
2022-10-11T15:40:56.340Z,17.80
2022-10-11T15:43:25.226Z,17.70
2022-10-11T15:48:26.247Z,17.50
2022-10-11T15:50:55.847Z,17.40
2022-10-11T15:53:28.572Z,17.40
2022-10-11T15:56:01.730Z,17.30
2022-10-11T15:58:33.508Z,17.20
2022-10-11T16:01:06.049Z,17.20
2022-10-11T16:03:35.826Z,17.10
2022-10-11T16:06:05.862Z,17.00
2022-10-11T16:11:05.445Z,16.80
2022-10-11T16:13:34.303Z,16.70
2022-10-11T16:16:03.483Z,16.70
2022-10-11T16:18:35.312Z,16.60
2022-10-11T16:21:08.985Z,16.50
2022-10-11T16:23:38.020Z,16.50
2022-10-11T16:26:10.449Z,16.40
2022-10-11T16:28:39.523Z,16.30
2022-10-11T16:31:09.460Z,16.30
2022-10-11T16:33:45.535Z,16.10
2022-10-11T16:36:36.606Z,16.00
2022-10-11T16:39:11.777Z,16.00
2022-10-11T16:41:42.606Z,15.80
2022-10-11T16:44:15.283Z,15.80
2022-10-11T16:46:47.651Z,15.70
2022-10-11T16:49:16.348Z,15.60
2022-10-11T16:54:16.577Z,15.40
2022-10-11T16:56:49.442Z,15.30
2022-10-11T16:59:18.320Z,15.20
2022-10-11T17:01:46.854Z,15.10
2022-10-11T17:04:15.634Z,15.10
2022-10-11T17:06:44.870Z,15.00
2022-10-11T17:09:13.651Z,14.90
2022-10-11T17:11:42.028Z,14.80
2022-10-11T17:14:13.299Z,14.80
2022-10-11T17:19:12.514Z,14.60
2022-10-11T17:24:10.103Z,14.50
2022-10-11T17:26:38.372Z,14.40
2022-10-11T17:29:06.601Z,14.30
2022-10-11T17:31:38.377Z,14.30
2022-10-11T17:34:06.690Z,14.20
2022-10-11T17:39:08.911Z,14.10
2022-10-11T17:41:37.604Z,14.00
2022-10-11T17:44:06.481Z,14.00
2022-10-11T17:46:37.041Z,13.90
2022-10-11T17:49:08.200Z,13.80
2022-10-11T17:51:38.260Z,13.80
2022-10-11T17:56:42.604Z,13.70
2022-10-11T17:59:18.846Z,13.60
2022-10-11T18:01:48.997Z,13.60
2022-10-11T18:06:48.135Z,13.50
2022-10-11T18:09:18.440Z,13.40
2022-10-11T18:11:47.092Z,13.30
2022-10-11T18:14:15.956Z,13.30
2022-10-11T18:19:15.054Z,13.20
2022-10-11T18:24:15.986Z,13.10
2022-10-11T18:26:45.465Z,13.10
2022-10-11T18:29:14.433Z,13.00
2022-10-11T18:34:15.747Z,12.90
2022-10-11T18:36:44.355Z,12.90
2022-10-11T18:39:16.239Z,12.80
2022-10-11T18:41:45.222Z,12.80
2022-10-11T18:44:15.963Z,12.70
2022-10-11T18:46:45.630Z,12.70
2022-10-11T18:49:15.783Z,12.60
2022-10-11T18:51:46.291Z,12.60
2022-10-11T19:01:51.964Z,12.40
2022-10-11T19:04:22.044Z,12.30
2022-10-11T19:06:53.432Z,12.30
2022-10-11T19:09:26.026Z,12.20
2022-10-11T19:11:56.854Z,12.20
2022-10-11T19:14:26.848Z,12.20
2022-10-11T19:19:28.785Z,12.10
2022-10-11T19:21:57.584Z,12.10
2022-10-11T19:24:28.576Z,12.00
2022-10-11T19:27:02.230Z,12.00
2022-10-11T19:29:32.361Z,11.90
2022-10-11T19:32:03.417Z,11.80
2022-10-11T19:34:33.106Z,11.80
2022-10-11T19:37:03.196Z,11.80
2022-10-11T19:39:31.908Z,11.70
2022-10-11T19:44:29.725Z,11.60
2022-10-11T19:47:02.732Z,11.60
2022-10-11T19:49:34.840Z,11.60
2022-10-11T20:07:17.508Z,11.30
2022-10-11T20:09:46.001Z,11.30
2022-10-11T20:19:39.730Z,11.20
2022-10-11T20:22:07.927Z,11.20
2022-10-11T20:24:37.577Z,11.20
2022-10-11T20:27:06.612Z,11.10
2022-10-11T20:29:34.944Z,11.10
2022-10-11T20:41:58.618Z,11.00
2022-10-11T20:51:56.049Z,10.90
2022-10-11T20:59:22.728Z,10.80
2022-10-11T21:04:21.207Z,10.70
2022-10-11T21:06:50.303Z,10.70
2022-10-11T21:09:19.058Z,10.70
2022-10-11T21:16:45.838Z,10.60
2022-10-11T21:19:16.262Z,10.50
2022-10-11T21:21:52.456Z,10.50
2022-10-11T21:29:19.431Z,10.40
2022-10-11T21:31:48.995Z,10.40
2022-10-11T21:39:14.767Z,10.30
2022-10-11T21:41:43.071Z,10.30
2022-10-11T21:49:29.821Z,10.20
2022-10-11T22:06:54.120Z,10.10
2022-10-11T22:14:19.532Z,10.10
2022-10-11T22:16:47.713Z,10.10
2022-10-11T22:19:16.182Z,10.10
2022-10-11T22:21:45.336Z,10.10
2022-10-11T22:24:15.096Z,10.00
2022-10-11T22:34:09.021Z,10.00
2022-10-11T22:41:38.338Z,10.00
2022-10-11T22:59:00.121Z,10.00
2022-10-11T23:01:28.487Z,10.00
2022-10-11T23:08:53.959Z,10.00
2022-10-11T23:16:20.884Z,10.00
2022-10-11T23:18:49.086Z,10.00
2022-10-11T23:21:17.244Z,10.00
2022-10-11T23:23:45.417Z,10.10
2022-10-11T23:26:16.078Z,10.10
2022-10-11T23:28:45.048Z,10.10
2022-10-11T23:31:16.444Z,10.20
2022-10-11T23:33:46.701Z,10.20
2022-10-11T23:36:16.637Z,10.20
2022-10-11T23:38:45.170Z,10.30
2022-10-11T23:51:09.869Z,10.30
2022-10-11T23:56:08.471Z,12.50
